createdAt,value
2023-05-10T00:04:12.958Z,1.63
2023-05-10T00:10:03.809Z,1.67
2023-05-10T00:15:52.013Z,1.58
2023-05-10T00:21:39.507Z,1.67
2023-05-10T00:27:26.731Z,1.55
2023-05-10T00:33:13.798Z,1.10
2023-05-10T00:39:01.324Z,1.80
2023-05-10T00:44:53.129Z,2.17
2023-05-10T00:50:41.155Z,1.85
2023-05-10T00:56:32.874Z,1.83
2023-05-10T01:02:20.033Z,1.50
2023-05-10T01:08:07.495Z,1.30
2023-05-10T01:13:59.715Z,1.13
2023-05-10T01:19:46.961Z,1.63
2023-05-10T01:25:47.408Z,1.73
2023-05-10T01:31:57.173Z,1.35
2023-05-10T01:38:00.564Z,1.55
2023-05-10T01:44:22.792Z,2.08
2023-05-10T01:50:16.550Z,2.10
2023-05-10T01:56:05.034Z,1.40
2023-05-10T02:01:54.308Z,1.40
2023-05-10T02:07:42.578Z,1.42
2023-05-10T02:13:32.687Z,1.70
2023-05-10T02:19:20.992Z,1.65
2023-05-10T02:25:09.811Z,2.03
2023-05-10T02:30:58.187Z,1.80
2023-05-10T02:36:48.974Z,2.38
2023-05-10T02:42:37.995Z,1.63
2023-05-10T02:48:28.031Z,1.90
2023-05-10T02:54:29.021Z,1.77
2023-05-10T03:00:16.484Z,1.80
2023-05-10T03:06:03.508Z,2.10
2023-05-10T03:12:06.423Z,2.20
2023-05-10T03:18:07.606Z,2.00
2023-05-10T03:24:06.943Z,1.92
2023-05-10T03:29:56.314Z,2.25
2023-05-10T03:35:45.248Z,2.15
2023-05-10T03:41:32.142Z,2.88
2023-05-10T03:47:21.518Z,3.00
2023-05-10T03:53:11.626Z,3.08
2023-05-10T03:59:00.328Z,2.90
2023-05-10T04:04:48.205Z,3.30
2023-05-10T04:10:35.095Z,3.42
2023-05-10T04:16:21.932Z,3.17
2023-05-10T04:22:10.958Z,3.38
2023-05-10T04:27:58.215Z,3.67
2023-05-10T04:33:45.204Z,3.28
2023-05-10T04:39:32.289Z,3.42
2023-05-10T04:45:21.255Z,3.53
2023-05-10T04:51:08.128Z,4.10
2023-05-10T04:56:58.231Z,3.97
2023-05-10T05:02:47.265Z,3.20
2023-05-10T05:08:37.518Z,3.45
2023-05-10T05:14:26.558Z,3.88
2023-05-10T05:20:20.499Z,3.55
2023-05-10T05:26:10.177Z,4.40
2023-05-10T05:32:00.400Z,4.22
2023-05-10T05:37:47.534Z,4.22
2023-05-10T05:43:36.673Z,3.80
2023-05-10T05:49:25.124Z,4.25
2023-05-10T05:55:12.813Z,3.80
2023-05-10T06:01:01.927Z,3.35
2023-05-10T06:06:48.739Z,3.70
2023-05-10T06:12:35.884Z,3.42
2023-05-10T06:18:23.025Z,2.88
2023-05-10T06:24:10.576Z,2.95
2023-05-10T06:30:11.667Z,2.30
2023-05-10T06:36:01.684Z,2.22
2023-05-10T06:41:50.490Z,3.40
2023-05-10T06:47:41.546Z,2.38
2023-05-10T06:53:38.029Z,2.33
2023-05-10T06:59:27.037Z,2.65
2023-05-10T07:05:24.175Z,2.40
2023-05-10T07:11:16.705Z,2.70
2023-05-10T07:17:03.827Z,2.20
2023-05-10T07:22:50.934Z,2.10
2023-05-10T07:28:40.145Z,1.70
2023-05-10T07:34:26.961Z,2.25
2023-05-10T07:40:13.944Z,2.25
2023-05-10T07:46:01.212Z,2.17
2023-05-10T07:51:48.579Z,2.63
2023-05-10T07:57:39.371Z,3.17
2023-05-10T08:03:30.140Z,2.35
2023-05-10T08:09:25.007Z,1.92
2023-05-10T08:15:12.194Z,2.17
2023-05-10T08:21:00.130Z,2.50
2023-05-10T08:26:49.738Z,1.95
2023-05-10T08:32:39.229Z,2.00
2023-05-10T08:38:26.964Z,2.72
2023-05-10T08:44:23.786Z,2.75
2023-05-10T08:50:19.079Z,2.28
2023-05-10T08:56:07.032Z,3.08
2023-05-10T09:01:56.998Z,2.50
2023-05-10T09:07:47.300Z,2.25
2023-05-10T09:13:36.834Z,2.47
2023-05-10T09:19:24.800Z,2.67
2023-05-10T09:25:16.838Z,2.63
2023-05-10T09:31:06.420Z,3.33
2023-05-10T09:37:06.820Z,2.70
2023-05-10T09:42:58.263Z,2.92
2023-05-10T09:48:47.385Z,3.38
2023-05-10T09:55:27.672Z,2.67
2023-05-10T10:01:14.670Z,2.55
2023-05-10T10:07:04.879Z,2.88
2023-05-10T10:12:52.346Z,2.60
2023-05-10T10:18:39.955Z,3.00
2023-05-10T10:24:28.388Z,2.55
2023-05-10T10:30:33.710Z,2.13
2023-05-10T10:36:22.006Z,2.20
2023-05-10T10:42:11.410Z,2.40
2023-05-10T10:48:27.062Z,2.28
2023-05-10T10:54:29.195Z,2.45
2023-05-10T11:00:32.088Z,1.85
2023-05-10T11:06:30.692Z,1.33
2023-05-10T11:12:18.980Z,1.58
2023-05-10T11:18:29.806Z,1.48
2023-05-10T11:24:24.031Z,1.60
2023-05-10T11:30:13.025Z,1.25
2023-05-10T11:36:00.219Z,1.30
2023-05-10T11:41:50.213Z,1.42
2023-05-10T11:47:42.610Z,1.00
2023-05-10T11:53:42.884Z,1.10
2023-05-10T11:59:29.997Z,1.23
2023-05-10T12:05:23.001Z,1.02
2023-05-10T12:11:29.496Z,0.95
2023-05-10T12:17:20.431Z,1.10
2023-05-10T12:23:15.440Z,1.42
2023-05-10T12:29:24.416Z,1.00
2023-05-10T12:35:14.187Z,0.98
2023-05-10T12:41:05.306Z,1.63
2023-05-10T12:46:52.386Z,1.80
2023-05-10T12:52:49.446Z,2.13
2023-05-10T12:58:38.470Z,0.95
2023-05-10T13:04:32.681Z,0.80
2023-05-10T13:10:25.502Z,1.20
2023-05-10T13:16:12.968Z,1.05
2023-05-10T13:22:12.540Z,1.35
2023-05-10T13:27:59.612Z,1.30
2023-05-10T13:33:48.617Z,1.58
2023-05-10T13:39:35.858Z,1.55
2023-05-10T13:45:26.074Z,1.00
2023-05-10T13:51:14.362Z,1.85
2023-05-10T13:57:04.107Z,1.17
2023-05-10T14:02:53.296Z,1.00
2023-05-10T14:08:42.321Z,1.70
2023-05-10T14:14:30.345Z,1.38
2023-05-10T14:20:19.926Z,1.30
2023-05-10T14:26:15.606Z,1.30
2023-05-10T14:32:07.008Z,0.30
2023-05-10T14:37:58.491Z,0.70
2023-05-10T14:43:54.672Z,0.38
2023-05-10T14:49:44.791Z,0.63
2023-05-10T14:55:35.008Z,0.80
2023-05-10T15:07:50.149Z,0.90
2023-05-10T15:13:39.826Z,1.23
2023-05-10T15:19:41.122Z,0.82
2023-05-10T15:25:31.915Z,1.17
2023-05-10T15:31:23.220Z,0.82
2023-05-10T15:37:11.673Z,0.90
2023-05-10T15:43:12.252Z,1.00
2023-05-10T15:49:25.001Z,1.20
2023-05-10T15:55:19.574Z,1.13
2023-05-10T16:01:12.958Z,2.20
2023-05-10T16:07:10.700Z,1.63
2023-05-10T16:12:58.644Z,0.90
2023-05-10T16:18:47.084Z,1.00
2023-05-10T16:24:47.243Z,1.02
2023-05-10T16:30:34.780Z,1.05
2023-05-10T16:36:31.448Z,1.10
2023-05-10T16:42:23.162Z,1.00
2023-05-10T16:48:13.682Z,1.25
2023-05-10T16:54:08.141Z,1.27
2023-05-10T17:00:00.265Z,1.20
2023-05-10T17:05:49.978Z,1.10
2023-05-10T17:11:45.343Z,1.38
2023-05-10T17:17:43.246Z,1.20
2023-05-10T17:29:46.480Z,1.10
2023-05-10T17:35:34.344Z,1.25
2023-05-10T17:41:23.662Z,0.82
2023-05-10T17:47:39.697Z,0.68
2023-05-10T17:55:06.873Z,0.70
2023-05-10T18:08:29.534Z,1.13
2023-05-10T18:14:40.738Z,1.70
2023-05-10T18:20:56.911Z,1.33
2023-05-10T18:26:54.953Z,1.20
2023-05-10T18:32:42.257Z,1.45
2023-05-10T18:38:34.103Z,1.42
2023-05-10T18:44:31.392Z,2.80
2023-05-10T18:50:49.863Z,1.40
2023-05-10T18:56:47.832Z,1.30
2023-05-10T19:02:51.707Z,3.28
2023-05-10T19:09:02.545Z,1.33
2023-05-10T19:15:12.317Z,2.25
2023-05-10T19:21:22.180Z,1.83
2023-05-10T19:27:18.225Z,1.35
2023-05-10T19:33:09.456Z,2.20
2023-05-10T19:39:17.040Z,1.55
2023-05-10T19:45:10.834Z,2.40
2023-05-10T19:51:21.842Z,1.70
2023-05-10T19:57:23.808Z,1.80
2023-05-10T20:03:34.748Z,2.10
2023-05-10T20:09:22.086Z,1.25
2023-05-10T20:15:17.077Z,1.13
2023-05-10T20:21:13.731Z,1.17
2023-05-10T20:34:20.626Z,3.60
2023-05-10T20:39:53.664Z,1.73
2023-05-10T20:45:42.890Z,1.38
2023-05-10T20:51:33.364Z,1.42
2023-05-10T20:57:41.607Z,1.40
2023-05-10T21:03:32.309Z,1.60
2023-05-10T21:09:19.677Z,1.60
2023-05-10T21:15:10.308Z,1.77
2023-05-10T21:27:29.105Z,1.23
2023-05-10T21:33:28.520Z,2.55
2023-05-10T21:39:18.357Z,0.82
2023-05-10T21:45:19.484Z,0.82
2023-05-10T21:51:09.742Z,1.10
2023-05-10T21:56:57.424Z,1.15
2023-05-10T22:09:40.380Z,1.15
2023-05-10T22:15:30.406Z,1.17
2023-05-10T22:21:22.370Z,0.88
2023-05-10T22:27:10.416Z,1.27
2023-05-10T22:32:59.997Z,1.10
2023-05-10T22:38:50.135Z,1.25
2023-05-10T22:44:42.019Z,1.02
2023-05-10T22:50:31.153Z,1.30
2023-05-10T22:56:31.693Z,1.02
2023-05-10T23:02:27.423Z,1.08
2023-05-10T23:08:17.275Z,1.27
2023-05-10T23:14:07.285Z,0.88
2023-05-10T23:20:16.976Z,0.93
2023-05-10T23:26:05.354Z,1.20
2023-05-10T23:32:00.045Z,1.00
2023-05-10T23:37:53.071Z,1.00
2023-05-10T23:43:42.003Z,0.70
2023-05-10T23:49:30.149Z,0.90
2023-05-10T23:55:17.549Z,0.70
